createdAt,value
2019-06-01T00:00:42.203Z,0.00
2019-06-01T00:01:42.412Z,0.00
2019-06-01T00:02:44.229Z,0.00
2019-06-01T00:03:42.680Z,0.00
2019-06-01T00:04:42.972Z,0.00
2019-06-01T00:05:42.561Z,0.00
2019-06-01T00:06:42.818Z,0.00
2019-06-01T00:07:42.897Z,0.00
2019-06-01T00:08:43.052Z,0.00
2019-06-01T00:09:42.847Z,0.00
2019-06-01T00:10:41.601Z,0.00
2019-06-01T00:11:41.651Z,0.00
2019-06-01T00:12:41.586Z,0.00
2019-06-01T00:13:41.600Z,0.00
2019-06-01T00:14:41.743Z,0.00
2019-06-01T00:15:41.918Z,0.00
2019-06-01T00:16:41.985Z,0.00
2019-06-01T00:17:41.889Z,0.00
2019-06-01T00:18:41.825Z,0.00
2019-06-01T00:19:41.976Z,0.00
2019-06-01T00:20:42.233Z,0.00
2019-06-01T00:21:41.493Z,0.00
2019-06-01T00:22:41.481Z,0.00
2019-06-01T00:23:42.466Z,0.00
2019-06-01T00:24:41.747Z,0.00
2019-06-01T00:25:42.585Z,0.00
2019-06-01T00:26:41.731Z,0.00
2019-06-01T00:27:42.430Z,0.00
2019-06-01T00:28:41.706Z,0.00
2019-06-01T00:29:42.523Z,0.00
2019-06-01T00:30:41.661Z,0.00
2019-06-01T00:31:41.388Z,0.00
2019-06-01T00:32:41.368Z,0.00
2019-06-01T00:33:41.364Z,0.00
2019-06-01T00:34:41.357Z,0.00
2019-06-01T00:35:41.443Z,0.00
2019-06-01T00:36:41.525Z,0.00
2019-06-01T00:37:41.402Z,0.00
2019-06-01T00:38:41.693Z,0.00
2019-06-01T00:39:41.640Z,0.00
2019-06-01T00:40:41.717Z,0.00
2019-06-01T00:41:41.905Z,0.00
2019-06-01T00:42:42.010Z,0.00
2019-06-01T00:43:42.091Z,0.00
2019-06-01T00:44:42.114Z,0.00
2019-06-01T00:45:42.278Z,0.00
2019-06-01T00:46:42.449Z,0.00
2019-06-01T00:47:42.578Z,0.00
2019-06-01T00:48:41.225Z,0.00
2019-06-01T00:49:41.195Z,0.00
2019-06-01T00:50:41.201Z,0.00
2019-06-01T00:51:41.181Z,0.00
2019-06-01T00:52:41.152Z,0.00
2019-06-01T00:53:41.159Z,0.00
2019-06-01T00:54:41.142Z,0.00
2019-06-01T00:55:41.137Z,0.00
2019-06-01T00:56:41.119Z,0.00
2019-06-01T00:57:41.160Z,0.00
2019-06-01T00:58:41.091Z,0.00
2019-06-01T00:59:41.080Z,0.00
2019-06-01T01:00:45.199Z,0.00
2019-06-01T01:01:41.077Z,0.00
2019-06-01T01:02:41.051Z,0.00
2019-06-01T01:03:41.037Z,0.00
2019-06-01T01:04:41.028Z,0.00
2019-06-01T01:05:41.038Z,0.00
2019-06-01T01:06:41.007Z,0.00
2019-06-01T01:07:41.007Z,0.00
2019-06-01T01:08:41.008Z,0.00
2019-06-01T01:09:40.975Z,0.00
2019-06-01T01:10:40.964Z,0.00
2019-06-01T01:11:40.963Z,0.00
2019-06-01T01:12:40.963Z,0.00
2019-06-01T01:13:40.924Z,0.00
2019-06-01T01:14:40.943Z,0.00
2019-06-01T01:15:40.903Z,0.00
2019-06-01T01:16:40.944Z,0.00
2019-06-01T01:17:40.924Z,0.00
2019-06-01T01:18:40.941Z,0.00
2019-06-01T01:19:40.871Z,0.00
2019-06-01T01:20:40.860Z,0.00
2019-06-01T01:21:40.840Z,0.00
2019-06-01T01:22:40.854Z,0.00
2019-06-01T01:23:40.843Z,0.00
2019-06-01T01:24:40.821Z,0.00
2019-06-01T01:25:40.805Z,0.00
2019-06-01T01:26:40.788Z,0.00
2019-06-01T01:27:40.786Z,0.00
2019-06-01T01:28:40.789Z,0.00
2019-06-01T01:29:40.766Z,0.00
2019-06-01T01:30:40.757Z,0.00
2019-06-01T01:31:40.738Z,0.00
2019-06-01T01:32:40.737Z,0.00
2019-06-01T01:33:40.717Z,0.00
2019-06-01T01:34:40.746Z,0.00
2019-06-01T01:35:40.707Z,0.00
2019-06-01T01:36:40.708Z,0.00
2019-06-01T01:37:40.729Z,0.00
2019-06-01T01:38:40.665Z,0.00
2019-06-01T01:39:40.652Z,0.00
2019-06-01T01:40:40.647Z,0.00
2019-06-01T01:41:40.643Z,0.00
2019-06-01T01:42:40.639Z,0.00
2019-06-01T01:43:40.602Z,0.00
2019-06-01T01:44:40.595Z,0.00
2019-06-01T01:45:40.592Z,0.00
2019-06-01T01:46:40.591Z,0.00
2019-06-01T01:47:40.584Z,0.00
2019-06-01T01:48:40.551Z,0.00
2019-06-01T01:49:40.580Z,0.00
2019-06-01T01:50:40.540Z,0.00
2019-06-01T01:51:40.521Z,0.00
2019-06-01T01:52:40.510Z,0.00
2019-06-01T01:53:40.515Z,0.00
2019-06-01T01:54:40.509Z,0.00
2019-06-01T01:55:40.499Z,0.00
2019-06-01T01:56:40.470Z,0.00
2019-06-01T01:57:40.459Z,0.00
2019-06-01T01:58:40.461Z,0.00
2019-06-01T01:59:40.436Z,0.00
2019-06-01T02:00:40.437Z,0.00
2019-06-01T02:01:40.406Z,0.00
2019-06-01T02:02:40.416Z,0.00
2019-06-01T02:03:40.395Z,0.00
2019-06-01T02:04:40.388Z,0.00
2019-06-01T02:05:40.374Z,0.00
2019-06-01T02:06:40.364Z,0.00
2019-06-01T02:07:40.354Z,0.00
2019-06-01T02:08:40.353Z,0.00
2019-06-01T02:09:40.332Z,0.00
2019-06-01T02:10:40.364Z,0.00
2019-06-01T02:11:40.323Z,0.00
2019-06-01T02:12:40.311Z,0.00
2019-06-01T02:13:40.300Z,0.00
2019-06-01T02:14:40.297Z,0.00
2019-06-01T02:15:40.286Z,0.00
2019-06-01T02:16:40.302Z,0.00
2019-06-01T02:17:40.274Z,0.00
2019-06-01T02:18:40.258Z,0.00
2019-06-01T02:19:40.219Z,0.00
2019-06-01T02:20:40.221Z,0.00
2019-06-01T02:21:40.229Z,0.00
2019-06-01T02:22:40.197Z,0.00
2019-06-01T02:23:40.209Z,0.00
2019-06-01T02:24:40.170Z,0.00
2019-06-01T02:25:40.157Z,0.00
2019-06-01T02:26:40.168Z,0.00
2019-06-01T02:27:40.138Z,0.00
2019-06-01T02:28:40.126Z,0.00
2019-06-01T02:29:40.126Z,0.00
2019-06-01T02:30:40.113Z,0.00
2019-06-01T02:31:42.728Z,0.00
2019-06-01T02:32:40.086Z,0.00
2019-06-01T02:33:40.085Z,0.00
2019-06-01T02:34:40.073Z,0.00
2019-06-01T02:35:40.055Z,0.00
2019-06-01T02:36:40.049Z,0.00
2019-06-01T02:37:40.033Z,0.00
2019-06-01T02:38:40.045Z,0.00
2019-06-01T02:39:40.018Z,0.00
2019-06-01T02:40:40.005Z,0.00
2019-06-01T02:41:39.995Z,0.00
2019-06-01T02:42:39.991Z,0.00
2019-06-01T02:43:39.982Z,0.00
2019-06-01T02:44:39.970Z,0.00
2019-06-01T02:45:39.954Z,0.00
2019-06-01T02:46:39.943Z,0.00
2019-06-01T02:47:39.944Z,4.00
2019-06-01T02:48:39.922Z,4.00
2019-06-01T02:49:39.928Z,4.00
2019-06-01T02:50:39.899Z,0.00
2019-06-01T02:51:39.887Z,4.00
2019-06-01T02:52:39.903Z,4.00
2019-06-01T02:53:39.870Z,4.00
2019-06-01T02:54:39.852Z,4.00
2019-06-01T02:55:39.847Z,4.00
2019-06-01T02:56:39.837Z,8.00
2019-06-01T02:57:39.833Z,8.00
2019-06-01T02:58:39.823Z,8.00
2019-06-01T02:59:39.818Z,8.00
2019-06-01T03:00:39.796Z,8.00
2019-06-01T03:01:55.967Z,12.00
2019-06-01T03:02:40.796Z,12.00
2019-06-01T03:03:39.754Z,16.00
2019-06-01T03:04:39.744Z,16.00
2019-06-01T03:05:39.746Z,20.00
2019-06-01T03:06:39.766Z,20.00
2019-06-01T03:07:39.714Z,24.00
2019-06-01T03:08:39.721Z,28.00
2019-06-01T03:09:39.693Z,28.00
2019-06-01T03:10:39.681Z,32.00
2019-06-01T03:11:39.691Z,36.00
2019-06-01T03:12:39.669Z,36.00
2019-06-01T03:13:39.691Z,44.00
2019-06-01T03:14:39.641Z,44.00
2019-06-01T03:15:39.632Z,48.00
2019-06-01T03:16:40.371Z,56.00
2019-06-01T03:17:39.609Z,56.00
2019-06-01T03:18:39.631Z,60.00
2019-06-01T03:19:39.588Z,68.00
2019-06-01T03:20:39.568Z,72.00
2019-06-01T03:21:39.579Z,76.00
2019-06-01T03:23:48.631Z,96.00
2019-06-01T03:24:48.451Z,100.00
2019-06-01T03:25:48.441Z,108.00
2019-06-01T03:26:48.442Z,116.00
2019-06-01T03:27:48.424Z,124.00
2019-06-01T03:28:48.409Z,136.00
2019-06-01T03:29:48.449Z,148.00
2019-06-01T03:30:48.390Z,160.00
2019-06-01T03:31:48.427Z,172.00
2019-06-01T03:32:48.371Z,188.00
2019-06-01T03:33:48.358Z,200.00
2019-06-01T03:34:48.351Z,212.00
2019-06-01T03:35:48.337Z,232.00
2019-06-01T03:36:48.326Z,248.00
2019-06-01T03:37:48.335Z,264.00
2019-06-01T03:38:48.323Z,284.00
2019-06-01T03:39:48.300Z,304.00
2019-06-01T03:40:48.299Z,324.00
2019-06-01T03:41:48.270Z,348.00
2019-06-01T03:42:48.293Z,372.00
2019-06-01T03:43:48.255Z,400.00
2019-06-01T03:44:48.286Z,428.00
2019-06-01T03:45:48.267Z,456.00
2019-06-01T03:46:48.224Z,476.00
2019-06-01T03:47:48.242Z,504.00
2019-06-01T03:48:48.194Z,528.00
2019-06-01T03:49:48.183Z,552.00
2019-06-01T03:50:48.174Z,572.00
2019-06-01T03:51:48.163Z,596.00
2019-06-01T03:52:48.170Z,616.00
2019-06-01T03:53:48.142Z,640.00
2019-06-01T03:54:48.682Z,664.00
2019-06-01T03:55:48.123Z,692.00
2019-06-01T03:56:48.119Z,720.00
2019-06-01T03:57:48.098Z,748.00
2019-06-01T03:58:48.099Z,772.00
2019-06-01T03:59:48.090Z,784.00
2019-06-01T04:00:48.085Z,796.00
2019-06-01T04:01:48.073Z,816.00
2019-06-01T04:02:48.045Z,848.00
2019-06-01T04:03:48.039Z,864.00
2019-06-01T04:04:48.019Z,848.00
2019-06-01T04:05:48.029Z,844.00
2019-06-01T04:06:48.024Z,884.00
2019-06-01T04:07:47.994Z,920.00
2019-06-01T04:08:47.977Z,932.00
2019-06-01T04:09:48.009Z,996.00
2019-06-01T04:10:47.990Z,1048.00
2019-06-01T04:11:47.954Z,1096.00
2019-06-01T04:12:47.972Z,1176.00
2019-06-01T04:13:47.943Z,1196.00
2019-06-01T04:14:47.911Z,1224.00
2019-06-01T04:15:47.956Z,1340.00
2019-06-01T04:16:48.655Z,1432.00
2019-06-01T04:17:47.892Z,1480.00
2019-06-01T04:18:47.872Z,1564.00
2019-06-01T04:19:47.862Z,1712.00
2019-06-01T04:20:47.852Z,1676.00
2019-06-01T04:21:47.861Z,1664.00
2019-06-01T04:22:47.829Z,1704.00
2019-06-01T04:23:47.827Z,1728.00
2019-06-01T04:24:47.810Z,1696.00
2019-06-01T04:25:47.798Z,1736.00
2019-06-01T04:26:47.800Z,1820.00
2019-06-01T04:27:47.769Z,1924.00
2019-06-01T04:28:47.768Z,2020.00
2019-06-01T04:29:47.779Z,2084.00
2019-06-01T04:30:47.754Z,2156.00
2019-06-01T04:31:47.742Z,2344.00
2019-06-01T04:32:50.228Z,2748.00
2019-06-01T04:33:47.718Z,4376.00
2019-06-01T04:34:47.716Z,7212.00
2019-06-01T04:35:47.687Z,7436.00
2019-06-01T04:36:47.693Z,6632.00
2019-06-01T04:37:47.672Z,6820.00
2019-06-01T04:38:47.673Z,6136.00
2019-06-01T04:39:47.645Z,5316.00
2019-06-01T04:40:47.655Z,5752.00
2019-06-01T04:41:47.623Z,5984.00
2019-06-01T04:42:47.645Z,6024.00
2019-06-01T04:43:47.620Z,6068.00
2019-06-01T04:44:47.593Z,5824.00
2019-06-01T04:45:47.590Z,4460.00
2019-06-01T04:46:47.571Z,2968.00
2019-06-01T04:47:47.571Z,3616.00
2019-06-01T04:48:47.562Z,4872.00
2019-06-01T04:49:47.542Z,6992.00
2019-06-01T04:50:47.529Z,10204.00
2019-06-01T04:51:47.519Z,9336.00
2019-06-01T04:52:47.614Z,5700.00
2019-06-01T04:53:47.526Z,4248.00
2019-06-01T04:54:47.488Z,4600.00
2019-06-01T04:55:47.480Z,4688.00
2019-06-01T04:56:47.469Z,4644.00
2019-06-01T04:57:47.459Z,4052.00
2019-06-01T04:58:47.462Z,3668.00
2019-06-01T04:59:47.447Z,3628.00
2019-06-01T05:00:47.425Z,3672.00
2019-06-01T05:01:47.417Z,3716.00
2019-06-01T05:02:47.440Z,3816.00
2019-06-01T05:03:47.395Z,3872.00
2019-06-01T05:04:47.445Z,3836.00
2019-06-01T05:05:47.378Z,4400.00
2019-06-01T05:06:47.364Z,4200.00
2019-06-01T05:07:47.344Z,4660.00
2019-06-01T05:08:47.362Z,4284.00
2019-06-01T05:09:47.343Z,4344.00
2019-06-01T05:10:47.323Z,4492.00
2019-06-01T05:11:47.355Z,4700.00
2019-06-01T05:12:47.294Z,4604.00
2019-06-01T05:13:47.293Z,4528.00
2019-06-01T05:14:47.272Z,4440.00
2019-06-01T05:15:47.266Z,4448.00
2019-06-01T05:16:47.250Z,4824.00
2019-06-01T05:17:47.241Z,5904.00
2019-06-01T05:18:47.250Z,6912.00
2019-06-01T05:19:47.244Z,8208.00
2019-06-01T05:20:47.211Z,7948.00
2019-06-01T05:21:47.199Z,8252.00
2019-06-01T05:22:47.189Z,7920.00
2019-06-01T05:23:47.177Z,8104.00
2019-06-01T05:24:47.182Z,18560.00
2019-06-01T05:25:47.167Z,28288.00
2019-06-01T05:26:47.148Z,28288.00
2019-06-01T05:27:47.137Z,19104.00
2019-06-01T05:28:47.134Z,30304.00
2019-06-01T05:29:47.117Z,31008.00
2019-06-01T05:30:47.097Z,18528.00
2019-06-01T05:31:47.086Z,24064.00
2019-06-01T05:32:47.124Z,35808.00
2019-06-01T05:33:47.075Z,32608.00
2019-06-01T05:34:47.067Z,26912.00
2019-06-01T05:35:47.046Z,19104.00
2019-06-01T05:36:47.035Z,11396.00
2019-06-01T05:37:47.034Z,10172.00
2019-06-01T05:38:47.024Z,13180.00
2019-06-01T05:39:47.036Z,13712.00
2019-06-01T05:40:46.996Z,13472.00
2019-06-01T05:42:55.953Z,26272.00
2019-06-01T05:43:55.893Z,23488.00
2019-06-01T05:44:55.888Z,25344.00
2019-06-01T05:45:55.869Z,26240.00
2019-06-01T05:46:55.856Z,32384.00
2019-06-01T05:47:55.880Z,43872.00
2019-06-01T05:48:55.835Z,49184.00
2019-06-01T05:49:55.832Z,50080.00
2019-06-01T05:50:55.821Z,51040.00
2019-06-01T05:51:55.807Z,53664.00
2019-06-01T05:52:55.785Z,51904.00
2019-06-01T05:53:55.783Z,50400.00
2019-06-01T05:54:55.773Z,21696.00
2019-06-01T05:55:55.762Z,16096.00
2019-06-01T05:56:55.743Z,15168.00
2019-06-01T05:57:55.739Z,14336.00
2019-06-01T05:58:55.722Z,22720.00
2019-06-01T05:59:55.742Z,19936.00
2019-06-01T06:00:55.702Z,25248.00
2019-06-01T06:01:55.692Z,39872.00
2019-06-01T06:02:55.692Z,31296.00
2019-06-01T06:03:55.674Z,20800.00
2019-06-01T06:04:55.693Z,17920.00
2019-06-01T06:05:55.655Z,17280.00
2019-06-01T06:06:55.640Z,11800.00
2019-06-01T06:07:55.631Z,12120.00
2019-06-01T06:08:55.620Z,17952.00
2019-06-01T06:09:55.623Z,23712.00
2019-06-01T06:10:55.599Z,18048.00
2019-06-01T06:11:55.595Z,10344.00
2019-06-01T06:12:55.584Z,9372.00
2019-06-01T06:13:55.568Z,9516.00
2019-06-01T06:14:55.634Z,9236.00
2019-06-01T06:15:55.558Z,9848.00
2019-06-01T06:16:55.538Z,9928.00
2019-06-01T06:17:55.518Z,10396.00
2019-06-01T06:18:55.516Z,10780.00
2019-06-01T06:19:55.506Z,11644.00
2019-06-01T06:20:55.527Z,13156.00
2019-06-01T06:21:55.498Z,13204.00
2019-06-01T06:22:55.797Z,13616.00
2019-06-01T06:23:55.468Z,13684.00
2019-06-01T06:24:55.445Z,13800.00
2019-06-01T06:25:55.435Z,15200.00
2019-06-01T06:26:55.440Z,13764.00
2019-06-01T06:27:55.419Z,9260.00
2019-06-01T06:28:55.416Z,9320.00
2019-06-01T06:29:55.395Z,12404.00
2019-06-01T06:30:55.389Z,14164.00
2019-06-01T06:31:55.390Z,16000.00
2019-06-01T06:32:55.379Z,18848.00
2019-06-01T06:33:57.021Z,20288.00
2019-06-01T06:34:55.344Z,24416.00
2019-06-01T06:35:55.346Z,18304.00
2019-06-01T06:36:55.323Z,22176.00
2019-06-01T06:37:55.303Z,21056.00
2019-06-01T06:38:55.303Z,28288.00
2019-06-01T06:39:55.295Z,38720.00
2019-06-01T06:40:55.278Z,47072.00
2019-06-01T06:41:55.401Z,39872.00
2019-06-01T06:42:55.278Z,35744.00
2019-06-01T06:43:55.241Z,41344.00
2019-06-01T06:44:55.233Z,53440.00
2019-06-01T06:45:55.220Z,58112.00
2019-06-01T06:46:55.231Z,51328.00
2019-06-01T06:47:55.200Z,51232.00
2019-06-01T06:48:55.199Z,40992.00
2019-06-01T06:49:55.184Z,42464.00
2019-06-01T06:50:55.180Z,35264.00
2019-06-01T06:51:55.184Z,53728.00
2019-06-01T06:52:55.153Z,43200.00
2019-06-01T06:53:55.138Z,52224.00
2019-06-01T06:54:55.129Z,67296.00
2019-06-01T06:55:55.128Z,79424.00
2019-06-01T06:56:55.106Z,71328.00
2019-06-01T06:57:55.103Z,64288.00
2019-06-01T06:58:55.099Z,58560.00
2019-06-01T06:59:55.067Z,50688.00
2019-06-01T07:00:55.063Z,52416.00
2019-06-01T07:01:55.047Z,27872.00
2019-06-01T07:02:55.067Z,22720.00
2019-06-01T07:03:55.054Z,45152.00
2019-06-01T07:04:55.025Z,31776.00
2019-06-01T07:05:55.018Z,64032.00
2019-06-01T07:06:54.996Z,75776.00
2019-06-01T07:07:55.000Z,25408.00
2019-06-01T07:08:54.997Z,32160.00
2019-06-01T07:09:54.994Z,73088.00
2019-06-01T07:10:54.965Z,77888.00
2019-06-01T07:11:54.966Z,77984.00
2019-06-01T07:12:54.936Z,78880.00
2019-06-01T07:13:54.935Z,73664.00
2019-06-01T07:14:54.936Z,79520.00
2019-06-01T07:15:54.905Z,82048.00
2019-06-01T07:16:54.894Z,84160.00
2019-06-01T07:17:54.903Z,84256.00
2019-06-01T07:18:54.874Z,82976.00
2019-06-01T07:19:54.874Z,83392.00
2019-06-01T07:20:54.864Z,83520.00
2019-06-01T07:21:54.844Z,83456.00
2019-06-01T07:22:54.833Z,82240.00
2019-06-01T07:23:54.833Z,84672.00
2019-06-01T07:24:54.843Z,82848.00
2019-06-01T07:25:54.803Z,81056.00
2019-06-01T07:26:54.807Z,78784.00
2019-06-01T07:27:54.829Z,78592.00
2019-06-01T07:28:55.223Z,80480.00
2019-06-01T07:29:54.778Z,83296.00
2019-06-01T07:30:54.753Z,81600.00
2019-06-01T07:31:54.744Z,82112.00
2019-06-01T07:32:54.752Z,80640.00
2019-06-01T07:33:54.723Z,83104.00
2019-06-01T07:34:54.711Z,83456.00
2019-06-01T07:35:56.689Z,83616.00
2019-06-01T07:36:54.706Z,83392.00
2019-06-01T07:37:54.689Z,82720.00
2019-06-01T07:38:54.671Z,81632.00
2019-06-01T07:39:54.690Z,74592.00
2019-06-01T07:40:54.660Z,69376.00
2019-06-01T07:41:54.676Z,75360.00
2019-06-01T07:42:54.630Z,84992.00
2019-06-01T07:43:54.620Z,84480.00
2019-06-01T07:44:54.631Z,75168.00
2019-06-01T07:45:54.620Z,82080.00
2019-06-01T07:46:54.609Z,81408.00
2019-06-01T07:47:54.580Z,82304.00
2019-06-01T07:48:54.630Z,81792.00
2019-06-01T07:49:54.559Z,81792.00
2019-06-01T07:50:54.571Z,78624.00
2019-06-01T07:51:54.585Z,80224.00
2019-06-01T07:52:54.529Z,81376.00
2019-06-01T07:53:54.538Z,81440.00
2019-06-01T07:54:54.528Z,84992.00
2019-06-01T07:55:54.538Z,86240.00
2019-06-01T07:56:54.507Z,85568.00
2019-06-01T07:57:54.506Z,84832.00
2019-06-01T07:58:54.478Z,82688.00
2019-06-01T07:59:54.472Z,82144.00
2019-06-01T08:00:54.465Z,83552.00
2019-06-01T08:01:54.456Z,74176.00
2019-06-01T08:02:54.449Z,82752.00
2019-06-01T08:03:54.427Z,84224.00
2019-06-01T08:04:54.920Z,85248.00
2019-06-01T08:05:54.407Z,85312.00
2019-06-01T08:06:54.418Z,86208.00
2019-06-01T08:07:54.397Z,85504.00
2019-06-01T08:08:54.381Z,83968.00
2019-06-01T08:09:54.367Z,84896.00
2019-06-01T08:10:54.366Z,85536.00
2019-06-01T08:11:54.366Z,81600.00
2019-06-01T08:12:54.336Z,74688.00
2019-06-01T08:13:54.326Z,82528.00
2019-06-01T08:14:54.316Z,82816.00
2019-06-01T08:15:54.316Z,84448.00
2019-06-01T08:16:54.323Z,85824.00
2019-06-01T08:17:54.293Z,85920.00
2019-06-01T08:18:54.290Z,85184.00
2019-06-01T08:19:54.276Z,81824.00
2019-06-01T08:20:54.275Z,82048.00
2019-06-01T08:21:54.279Z,81952.00
2019-06-01T08:22:54.244Z,80544.00
2019-06-01T08:23:54.241Z,82784.00
2019-06-01T08:24:54.235Z,83840.00
2019-06-01T08:25:54.221Z,50976.00
2019-06-01T08:26:54.225Z,63264.00
2019-06-01T08:27:54.194Z,80544.00
2019-06-01T08:28:54.174Z,76000.00
2019-06-01T08:29:54.175Z,82048.00
2019-06-01T08:30:54.166Z,80064.00
2019-06-01T08:31:55.923Z,75264.00
2019-06-01T08:32:54.153Z,81152.00
2019-06-01T08:33:54.153Z,79232.00
2019-06-01T08:35:07.802Z,77472.00
2019-06-01T08:35:55.124Z,26592.00
2019-06-01T08:36:54.106Z,82976.00
2019-06-01T08:37:54.102Z,25632.00
2019-06-01T08:38:54.083Z,78816.00
2019-06-01T08:39:54.071Z,91712.00
2019-06-01T08:40:54.080Z,96800.00
2019-06-01T08:41:54.061Z,51712.00
2019-06-01T08:42:54.049Z,99168.00
2019-06-01T08:43:54.034Z,56448.00
2019-06-01T08:44:54.031Z,87840.00
2019-06-01T08:45:54.020Z,86976.00
2019-06-01T08:46:54.021Z,71520.00
2019-06-01T08:47:54.021Z,80896.00
2019-06-01T08:48:53.991Z,75840.00
2019-06-01T08:49:53.980Z,71776.00
2019-06-01T08:50:53.981Z,78400.00
2019-06-01T08:51:53.951Z,75456.00
2019-06-01T08:52:53.941Z,78304.00
2019-06-01T08:53:53.942Z,79264.00
2019-06-01T08:54:53.919Z,76032.00
2019-06-01T08:55:53.939Z,27008.00
2019-06-01T08:56:53.900Z,59264.00
2019-06-01T08:57:53.900Z,76384.00
2019-06-01T08:58:53.879Z,75392.00
2019-06-01T08:59:53.879Z,80288.00
2019-06-01T09:00:53.876Z,67616.00
2019-06-01T09:01:53.859Z,56544.00
2019-06-01T09:02:53.842Z,75776.00
2019-06-01T09:03:53.838Z,70944.00
2019-06-01T09:04:53.829Z,67392.00
2019-06-01T09:05:53.826Z,47552.00
2019-06-01T09:06:53.810Z,62912.00
2019-06-01T09:07:53.800Z,58432.00
2019-06-01T09:08:53.786Z,60832.00
2019-06-01T09:09:53.777Z,63488.00
2019-06-01T09:10:53.779Z,61824.00
2019-06-01T09:11:53.758Z,55200.00
2019-06-01T09:12:53.757Z,62400.00
2019-06-01T09:13:53.737Z,59584.00
2019-06-01T09:14:53.727Z,54848.00
2019-06-01T09:15:53.716Z,58432.00
2019-06-01T09:16:53.725Z,62304.00
2019-06-01T09:17:53.697Z,59904.00
2019-06-01T09:18:53.685Z,59328.00
2019-06-01T09:19:53.676Z,59424.00
2019-06-01T09:20:53.665Z,55488.00
2019-06-01T09:21:53.676Z,61600.00
2019-06-01T09:22:53.645Z,55520.00
2019-06-01T09:23:53.640Z,60448.00
2019-06-01T09:24:53.717Z,30272.00
2019-06-01T09:25:53.626Z,24256.00
2019-06-01T09:26:53.613Z,15872.00
2019-06-01T09:27:53.603Z,15872.00
2019-06-01T09:28:53.585Z,14944.00
2019-06-01T09:29:53.573Z,14064.00
2019-06-01T09:30:53.584Z,13388.00
2019-06-01T09:31:53.554Z,12680.00
2019-06-01T09:32:53.555Z,12912.00
2019-06-01T09:33:53.524Z,12392.00
2019-06-01T09:34:53.513Z,12352.00
2019-06-01T09:35:56.232Z,11772.00
2019-06-01T09:36:55.509Z,11504.00
2019-06-01T09:37:53.493Z,11052.00
2019-06-01T09:38:53.493Z,11012.00
2019-06-01T09:39:53.475Z,10780.00
2019-06-01T09:40:53.461Z,10540.00
2019-06-01T09:41:53.442Z,10456.00
2019-06-01T09:42:53.440Z,10300.00
2019-06-01T09:43:53.440Z,10248.00
2019-06-01T09:44:53.453Z,10088.00
2019-06-01T09:45:53.728Z,9872.00
2019-06-01T09:46:53.392Z,9820.00
2019-06-01T09:47:53.391Z,10052.00
2019-06-01T09:48:53.380Z,10064.00
2019-06-01T09:49:53.361Z,9740.00
2019-06-01T09:50:53.359Z,10332.00
2019-06-01T09:51:53.370Z,10408.00
2019-06-01T09:52:53.333Z,9460.00
2019-06-01T09:53:53.321Z,9484.00
2019-06-01T09:54:53.309Z,9172.00
2019-06-01T09:55:53.306Z,9060.00
2019-06-01T09:56:53.309Z,8880.00
2019-06-01T09:57:53.281Z,8732.00
2019-06-01T09:58:53.271Z,8744.00
2019-06-01T09:59:53.286Z,8856.00
2019-06-01T10:00:53.247Z,8664.00
2019-06-01T10:01:53.238Z,8616.00
2019-06-01T10:02:53.228Z,8684.00
2019-06-01T10:03:53.228Z,8520.00
2019-06-01T10:04:53.226Z,8532.00
2019-06-01T10:06:01.972Z,8476.00
2019-06-01T10:06:54.181Z,8196.00
2019-06-01T10:07:53.197Z,8040.00
2019-06-01T10:08:53.166Z,7636.00
2019-06-01T10:09:53.158Z,7372.00
2019-06-01T10:10:53.165Z,7208.00
2019-06-01T10:11:53.126Z,7012.00
2019-06-01T10:12:53.136Z,6932.00
2019-06-01T10:13:53.106Z,6920.00
2019-06-01T10:14:53.125Z,6840.00
2019-06-01T10:15:53.085Z,6824.00
2019-06-01T10:16:53.083Z,6700.00
2019-06-01T10:17:53.076Z,6556.00
2019-06-01T10:18:53.054Z,6448.00
2019-06-01T10:19:53.065Z,6400.00
2019-06-01T10:20:53.045Z,6308.00
2019-06-01T10:21:53.032Z,6144.00
2019-06-01T10:22:53.015Z,6000.00
2019-06-01T10:23:53.013Z,5924.00
2019-06-01T10:24:52.993Z,5892.00
2019-06-01T10:25:53.010Z,5844.00
2019-06-01T10:26:53.112Z,5812.00
2019-06-01T10:27:52.980Z,5788.00
2019-06-01T10:28:52.962Z,5776.00
2019-06-01T10:29:52.942Z,5776.00
2019-06-01T10:30:52.927Z,5708.00
2019-06-01T10:31:52.919Z,5636.00
2019-06-01T10:32:52.911Z,5680.00
2019-06-01T10:33:52.911Z,5632.00
2019-06-01T10:34:52.891Z,5632.00
2019-06-01T10:35:52.891Z,5568.00
2019-06-01T10:36:52.868Z,5516.00
2019-06-01T10:37:52.850Z,5476.00
2019-06-01T10:38:52.840Z,5400.00
2019-06-01T10:39:52.838Z,5364.00
2019-06-01T10:40:52.838Z,5328.00
2019-06-01T10:41:52.819Z,5264.00
2019-06-01T10:42:52.809Z,5280.00
2019-06-01T10:43:52.807Z,5412.00
2019-06-01T10:44:52.810Z,5436.00
2019-06-01T10:45:52.768Z,5400.00
2019-06-01T10:46:52.774Z,5324.00
2019-06-01T10:47:52.757Z,5228.00
2019-06-01T10:48:52.742Z,5144.00
2019-06-01T10:49:52.726Z,5076.00
2019-06-01T10:50:52.717Z,5048.00
2019-06-01T10:51:52.717Z,4988.00
2019-06-01T10:52:52.709Z,4924.00
2019-06-01T10:53:52.709Z,4812.00
2019-06-01T10:54:52.676Z,4736.00
2019-06-01T10:55:52.665Z,4700.00
2019-06-01T10:56:52.822Z,4568.00
2019-06-01T10:57:52.645Z,4496.00
2019-06-01T10:58:59.954Z,4492.00
2019-06-01T10:59:53.614Z,4468.00
2019-06-01T11:00:52.614Z,4412.00
2019-06-01T11:01:52.622Z,4456.00
2019-06-01T11:02:52.598Z,4404.00
2019-06-01T11:03:52.575Z,4420.00
2019-06-01T11:04:52.577Z,4408.00
2019-06-01T11:05:52.563Z,4396.00
2019-06-01T11:06:52.561Z,4324.00
2019-06-01T11:07:52.552Z,4280.00
2019-06-01T11:08:52.523Z,4256.00
2019-06-01T11:09:52.522Z,4268.00
2019-06-01T11:10:52.558Z,4248.00
2019-06-01T11:11:52.501Z,4212.00
2019-06-01T11:12:52.490Z,4228.00
2019-06-01T11:13:52.471Z,4184.00
2019-06-01T11:14:52.468Z,4136.00
2019-06-01T11:15:52.469Z,4116.00
2019-06-01T11:16:56.247Z,4040.00
2019-06-01T11:17:52.430Z,4044.00
2019-06-01T11:18:52.444Z,3996.00
2019-06-01T11:19:52.410Z,3956.00
2019-06-01T11:20:52.399Z,3948.00
2019-06-01T11:21:52.442Z,3920.00
2019-06-01T11:22:52.379Z,3868.00
2019-06-01T11:23:52.378Z,3824.00
2019-06-01T11:24:52.359Z,3796.00
2019-06-01T11:25:52.349Z,3752.00
2019-06-01T11:26:52.338Z,3724.00
2019-06-01T11:27:52.332Z,3740.00
2019-06-01T11:28:52.329Z,3756.00
2019-06-01T11:29:52.308Z,3784.00
2019-06-01T11:30:52.317Z,3656.00
2019-06-01T11:31:52.287Z,3572.00
2019-06-01T11:32:52.267Z,3592.00
2019-06-01T11:33:52.285Z,3600.00
2019-06-01T11:34:52.256Z,3628.00
2019-06-01T11:35:52.249Z,3728.00
2019-06-01T11:37:04.382Z,3820.00
2019-06-01T11:37:53.225Z,3836.00
2019-06-01T11:38:52.229Z,3812.00
2019-06-01T11:39:52.197Z,3792.00
2019-06-01T11:40:52.223Z,3764.00
2019-06-01T11:41:52.175Z,3752.00
2019-06-01T11:42:52.166Z,3860.00
2019-06-01T11:43:52.164Z,3824.00
2019-06-01T11:44:52.144Z,3776.00
2019-06-01T11:45:52.154Z,3700.00
2019-06-01T11:46:52.157Z,3676.00
2019-06-01T11:47:52.114Z,3708.00
2019-06-01T11:48:52.115Z,3840.00
2019-06-01T11:49:52.093Z,3940.00
2019-06-01T11:50:52.093Z,3828.00
2019-06-01T11:51:52.105Z,3656.00
2019-06-01T11:52:52.065Z,3644.00
2019-06-01T11:53:52.053Z,3648.00
2019-06-01T11:54:52.051Z,3612.00
2019-06-01T11:55:52.031Z,3676.00
2019-06-01T11:56:52.021Z,3732.00
2019-06-01T11:57:52.009Z,3828.00
2019-06-01T11:58:52.001Z,3912.00
2019-06-01T11:59:52.004Z,3872.00
2019-06-01T12:00:51.981Z,3780.00
2019-06-01T12:01:52.071Z,3672.00
2019-06-01T12:02:51.949Z,3604.00
2019-06-01T12:03:51.958Z,3404.00
2019-06-01T12:04:51.930Z,3280.00
2019-06-01T12:05:51.929Z,3692.00
2019-06-01T12:06:51.972Z,3784.00
2019-06-01T12:07:51.898Z,3808.00
2019-06-01T12:08:51.897Z,3724.00
2019-06-01T12:09:51.878Z,3588.00
2019-06-01T12:10:51.868Z,3540.00
2019-06-01T12:11:51.991Z,3552.00
2019-06-01T12:12:51.848Z,3636.00
2019-06-01T12:13:51.847Z,3712.00
2019-06-01T12:14:51.828Z,3848.00
2019-06-01T12:15:51.818Z,3860.00
2019-06-01T12:16:51.817Z,3888.00
2019-06-01T12:17:51.799Z,3968.00
2019-06-01T12:18:51.786Z,4136.00
2019-06-01T12:19:51.776Z,4208.00